sensor_id;sensor_type;location;lat;lon;timestamp;temperature;humidity
1405;DHT22;697;51.114;6.542;2022-11-20T00:00:10;7.00;91.80
1405;DHT22;697;51.114;6.542;2022-11-20T00:02:37;6.90;91.40
1405;DHT22;697;51.114;6.542;2022-11-20T00:05:06;6.90;91.40
1405;DHT22;697;51.114;6.542;2022-11-20T00:07:33;6.90;91.50
1405;DHT22;697;51.114;6.542;2022-11-20T00:10:00;6.90;91.60
1405;DHT22;697;51.114;6.542;2022-11-20T00:12:27;6.90;91.60
1405;DHT22;697;51.114;6.542;2022-11-20T00:14:53;6.90;91.50
1405;DHT22;697;51.114;6.542;2022-11-20T00:17:20;6.90;91.50
1405;DHT22;697;51.114;6.542;2022-11-20T00:19:47;6.90;91.50
1405;DHT22;697;51.114;6.542;2022-11-20T00:22:15;6.90;91.50
1405;DHT22;697;51.114;6.542;2022-11-20T00:24:42;6.90;91.50
1405;DHT22;697;51.114;6.542;2022-11-20T00:27:08;6.90;91.60
1405;DHT22;697;51.114;6.542;2022-11-20T00:29:35;6.90;91.70
1405;DHT22;697;51.114;6.542;2022-11-20T00:32:02;6.90;91.80
1405;DHT22;697;51.114;6.542;2022-11-20T00:34:29;6.90;91.70
1405;DHT22;697;51.114;6.542;2022-11-20T00:36:55;6.90;91.70
1405;DHT22;697;51.114;6.542;2022-11-20T00:39:23;6.90;91.90
1405;DHT22;697;51.114;6.542;2022-11-20T00:41:50;6.90;91.80
1405;DHT22;697;51.114;6.542;2022-11-20T00:44:17;6.90;91.90
1405;DHT22;697;51.114;6.542;2022-11-20T00:46:43;6.80;91.90
1405;DHT22;697;51.114;6.542;2022-11-20T00:49:10;6.80;92.00
1405;DHT22;697;51.114;6.542;2022-11-20T00:51:37;6.90;92.10
1405;DHT22;697;51.114;6.542;2022-11-20T00:54:03;6.90;92.00
1405;DHT22;697;51.114;6.542;2022-11-20T00:56:32;6.90;92.00
1405;DHT22;697;51.114;6.542;2022-11-20T00:58:59;6.90;92.00
1405;DHT22;697;51.114;6.542;2022-11-20T01:01:27;6.90;92.10
1405;DHT22;697;51.114;6.542;2022-11-20T01:03:56;6.80;92.10
1405;DHT22;697;51.114;6.542;2022-11-20T01:06:24;6.90;92.10
1405;DHT22;697;51.114;6.542;2022-11-20T01:08:53;6.90;92.00
1405;DHT22;697;51.114;6.542;2022-11-20T01:11:21;6.90;92.00
1405;DHT22;697;51.114;6.542;2022-11-20T01:13:51;6.90;92.10
1405;DHT22;697;51.114;6.542;2022-11-20T01:16:22;6.80;92.10
1405;DHT22;697;51.114;6.542;2022-11-20T01:18:51;6.80;91.90
1405;DHT22;697;51.114;6.542;2022-11-20T01:21:22;6.80;91.90
1405;DHT22;697;51.114;6.542;2022-11-20T01:23:50;6.80;91.90
1405;DHT22;697;51.114;6.542;2022-11-20T01:26:20;6.80;91.90
1405;DHT22;697;51.114;6.542;2022-11-20T01:28:47;6.80;92.00
1405;DHT22;697;51.114;6.542;2022-11-20T01:31:18;6.70;92.00
1405;DHT22;697;51.114;6.542;2022-11-20T01:33:46;6.80;92.30
1405;DHT22;697;51.114;6.542;2022-11-20T01:36:14;6.80;92.40
1405;DHT22;697;51.114;6.542;2022-11-20T01:38:41;6.70;92.50
1405;DHT22;697;51.114;6.542;2022-11-20T01:41:09;6.80;92.60
1405;DHT22;697;51.114;6.542;2022-11-20T01:43:57;6.80;92.60
1405;DHT22;697;51.114;6.542;2022-11-20T01:46:25;6.80;92.40
1405;DHT22;697;51.114;6.542;2022-11-20T01:48:54;6.80;92.50
1405;DHT22;697;51.114;6.542;2022-11-20T01:51:29;6.80;92.60
1405;DHT22;697;51.114;6.542;2022-11-20T01:54:00;6.80;92.60
1405;DHT22;697;51.114;6.542;2022-11-20T01:56:27;6.80;92.60
1405;DHT22;697;51.114;6.542;2022-11-20T01:58:58;6.80;92.60
1405;DHT22;697;51.114;6.542;2022-11-20T02:01:27;6.80;92.50
1405;DHT22;697;51.114;6.542;2022-11-20T02:03:54;6.80;92.50
1405;DHT22;697;51.114;6.542;2022-11-20T02:06:23;6.80;92.50
1405;DHT22;697;51.114;6.542;2022-11-20T02:08:51;6.80;92.60
1405;DHT22;697;51.114;6.542;2022-11-20T02:11:18;6.80;93.10
1405;DHT22;697;51.114;6.542;2022-11-20T02:13:46;6.80;92.80
1405;DHT22;697;51.114;6.542;2022-11-20T02:16:15;6.80;92.80
1405;DHT22;697;51.114;6.542;2022-11-20T02:18:44;6.80;92.80
1405;DHT22;697;51.114;6.542;2022-11-20T02:21:21;6.80;92.80
1405;DHT22;697;51.114;6.542;2022-11-20T02:24:01;6.80;92.80
1405;DHT22;697;51.114;6.542;2022-11-20T02:26:30;6.80;93.00
1405;DHT22;697;51.114;6.542;2022-11-20T02:28:58;6.80;93.00
1405;DHT22;697;51.114;6.542;2022-11-20T02:31:26;6.80;93.10
1405;DHT22;697;51.114;6.542;2022-11-20T02:33:55;6.70;93.20
1405;DHT22;697;51.114;6.542;2022-11-20T02:36:22;6.70;93.70
1405;DHT22;697;51.114;6.542;2022-11-20T02:38:50;6.70;93.40
1405;DHT22;697;51.114;6.542;2022-11-20T02:41:18;6.70;93.40
1405;DHT22;697;51.114;6.542;2022-11-20T02:43:45;6.70;93.40
1405;DHT22;697;51.114;6.542;2022-11-20T02:46:12;6.70;93.50
1405;DHT22;697;51.114;6.542;2022-11-20T02:48:38;6.70;93.60
1405;DHT22;697;51.114;6.542;2022-11-20T02:51:05;6.70;93.60
1405;DHT22;697;51.114;6.542;2022-11-20T02:53:32;6.70;93.70
1405;DHT22;697;51.114;6.542;2022-11-20T02:56:00;6.70;93.70
1405;DHT22;697;51.114;6.542;2022-11-20T02:58:28;6.70;93.80
1405;DHT22;697;51.114;6.542;2022-11-20T03:00:55;6.70;93.90
1405;DHT22;697;51.114;6.542;2022-11-20T03:03:21;6.70;94.00
1405;DHT22;697;51.114;6.542;2022-11-20T03:05:48;6.70;93.90
1405;DHT22;697;51.114;6.542;2022-11-20T03:08:15;6.70;93.70
1405;DHT22;697;51.114;6.542;2022-11-20T03:10:41;6.70;93.60
1405;DHT22;697;51.114;6.542;2022-11-20T03:13:08;6.60;93.50
1405;DHT22;697;51.114;6.542;2022-11-20T03:15:37;6.60;93.30
1405;DHT22;697;51.114;6.542;2022-11-20T03:18:04;6.60;93.30
1405;DHT22;697;51.114;6.542;2022-11-20T03:20:32;6.50;93.30
1405;DHT22;697;51.114;6.542;2022-11-20T03:23:00;6.50;93.30
1405;DHT22;697;51.114;6.542;2022-11-20T03:25:27;6.50;93.30
1405;DHT22;697;51.114;6.542;2022-11-20T03:27:54;6.50;93.10
1405;DHT22;697;51.114;6.542;2022-11-20T03:30:21;6.40;92.90
1405;DHT22;697;51.114;6.542;2022-11-20T03:32:52;6.40;92.80
1405;DHT22;697;51.114;6.542;2022-11-20T03:35:19;6.40;92.60
1405;DHT22;697;51.114;6.542;2022-11-20T03:37:46;6.30;92.50
1405;DHT22;697;51.114;6.542;2022-11-20T03:40:13;6.30;92.60
1405;DHT22;697;51.114;6.542;2022-11-20T03:42:40;6.20;92.50
1405;DHT22;697;51.114;6.542;2022-11-20T03:45:13;6.10;92.70
1405;DHT22;697;51.114;6.542;2022-11-20T03:47:40;6.10;93.00
1405;DHT22;697;51.114;6.542;2022-11-20T03:50:10;6.10;93.30
1405;DHT22;697;51.114;6.542;2022-11-20T03:52:37;6.10;93.40
1405;DHT22;697;51.114;6.542;2022-11-20T03:55:05;6.10;93.50
1405;DHT22;697;51.114;6.542;2022-11-20T03:57:32;6.10;93.50
1405;DHT22;697;51.114;6.542;2022-11-20T03:59:58;6.10;93.50
1405;DHT22;697;51.114;6.542;2022-11-20T04:02:25;6.10;93.50
1405;DHT22;697;51.114;6.542;2022-11-20T04:04:52;6.10;93.50
1405;DHT22;697;51.114;6.542;2022-11-20T04:07:20;6.10;93.50
1405;DHT22;697;51.114;6.542;2022-11-20T04:09:47;6.10;93.40
1405;DHT22;697;51.114;6.542;2022-11-20T04:12:13;6.10;93.40
1405;DHT22;697;51.114;6.542;2022-11-20T04:14:40;6.10;93.40
1405;DHT22;697;51.114;6.542;2022-11-20T04:17:07;6.10;93.50
1405;DHT22;697;51.114;6.542;2022-11-20T04:19:33;6.20;93.50
1405;DHT22;697;51.114;6.542;2022-11-20T04:22:00;6.20;93.40
1405;DHT22;697;51.114;6.542;2022-11-20T04:24:28;6.20;93.40
1405;DHT22;697;51.114;6.542;2022-11-20T04:26:55;6.20;93.30
1405;DHT22;697;51.114;6.542;2022-11-20T04:29:22;6.10;93.30
1405;DHT22;697;51.114;6.542;2022-11-20T04:31:49;6.10;93.40
1405;DHT22;697;51.114;6.542;2022-11-20T04:34:15;6.20;93.40
1405;DHT22;697;51.114;6.542;2022-11-20T04:36:42;6.20;93.50
1405;DHT22;697;51.114;6.542;2022-11-20T04:39:13;6.20;93.50
1405;DHT22;697;51.114;6.542;2022-11-20T04:41:42;6.20;93.50
1405;DHT22;697;51.114;6.542;2022-11-20T04:44:09;6.20;93.50
1405;DHT22;697;51.114;6.542;2022-11-20T04:46:37;6.20;93.50
1405;DHT22;697;51.114;6.542;2022-11-20T04:49:05;6.20;93.50
1405;DHT22;697;51.114;6.542;2022-11-20T04:51:32;6.30;93.80
1405;DHT22;697;51.114;6.542;2022-11-20T04:53:59;6.20;93.30
1405;DHT22;697;51.114;6.542;2022-11-20T04:56:25;6.20;93.20
1405;DHT22;697;51.114;6.542;2022-11-20T04:58:54;6.20;93.20
1405;DHT22;697;51.114;6.542;2022-11-20T05:01:22;6.20;93.10
1405;DHT22;697;51.114;6.542;2022-11-20T05:03:49;6.20;93.10
1405;DHT22;697;51.114;6.542;2022-11-20T05:06:18;6.20;93.10
1405;DHT22;697;51.114;6.542;2022-11-20T05:08:45;6.20;93.10
1405;DHT22;697;51.114;6.542;2022-11-20T05:11:13;6.20;93.10
1405;DHT22;697;51.114;6.542;2022-11-20T05:13:40;6.20;93.40
1405;DHT22;697;51.114;6.542;2022-11-20T05:16:10;6.20;93.30
1405;DHT22;697;51.114;6.542;2022-11-20T05:18:37;6.20;93.30
1405;DHT22;697;51.114;6.542;2022-11-20T05:21:05;6.20;93.40
1405;DHT22;697;51.114;6.542;2022-11-20T05:23:32;6.20;93.40
1405;DHT22;697;51.114;6.542;2022-11-20T05:25:59;6.20;93.30
1405;DHT22;697;51.114;6.542;2022-11-20T05:28:27;6.20;93.40
1405;DHT22;697;51.114;6.542;2022-11-20T05:30:54;6.20;93.30
1405;DHT22;697;51.114;6.542;2022-11-20T05:33:23;6.20;93.30
1405;DHT22;697;51.114;6.542;2022-11-20T05:35:49;6.10;93.30
1405;DHT22;697;51.114;6.542;2022-11-20T05:38:16;6.10;93.20
1405;DHT22;697;51.114;6.542;2022-11-20T05:40:43;6.10;93.00
1405;DHT22;697;51.114;6.542;2022-11-20T05:43:10;6.10;92.90
1405;DHT22;697;51.114;6.542;2022-11-20T05:45:36;6.10;92.90
1405;DHT22;697;51.114;6.542;2022-11-20T05:48:03;6.10;92.90
1405;DHT22;697;51.114;6.542;2022-11-20T05:50:32;6.10;92.80
1405;DHT22;697;51.114;6.542;2022-11-20T05:52:58;6.10;92.90
1405;DHT22;697;51.114;6.542;2022-11-20T05:55:25;6.10;93.00
1405;DHT22;697;51.114;6.542;2022-11-20T05:57:52;6.10;93.10
1405;DHT22;697;51.114;6.542;2022-11-20T06:00:20;6.10;93.20
1405;DHT22;697;51.114;6.542;2022-11-20T06:02:47;6.10;93.20
1405;DHT22;697;51.114;6.542;2022-11-20T06:05:13;6.10;93.20
1405;DHT22;697;51.114;6.542;2022-11-20T06:07:45;6.10;93.20
1405;DHT22;697;51.114;6.542;2022-11-20T06:10:11;6.10;93.20
1405;DHT22;697;51.114;6.542;2022-11-20T06:12:38;6.10;93.20
1405;DHT22;697;51.114;6.542;2022-11-20T06:15:06;6.10;93.20
1405;DHT22;697;51.114;6.542;2022-11-20T06:17:32;6.00;93.20
1405;DHT22;697;51.114;6.542;2022-11-20T06:19:59;6.00;93.30
1405;DHT22;697;51.114;6.542;2022-11-20T06:22:26;6.00;93.30
1405;DHT22;697;51.114;6.542;2022-11-20T06:24:54;6.00;93.20
1405;DHT22;697;51.114;6.542;2022-11-20T06:27:21;6.00;93.30
1405;DHT22;697;51.114;6.542;2022-11-20T06:29:47;6.00;93.30
1405;DHT22;697;51.114;6.542;2022-11-20T06:32:14;5.90;93.10
1405;DHT22;697;51.114;6.542;2022-11-20T06:34:41;5.90;93.10
1405;DHT22;697;51.114;6.542;2022-11-20T06:37:07;5.90;93.10
1405;DHT22;697;51.114;6.542;2022-11-20T06:39:34;5.90;93.20
1405;DHT22;697;51.114;6.542;2022-11-20T06:42:02;5.80;93.20
1405;DHT22;697;51.114;6.542;2022-11-20T06:44:29;5.90;93.20
1405;DHT22;697;51.114;6.542;2022-11-20T06:46:56;5.80;93.00
1405;DHT22;697;51.114;6.542;2022-11-20T06:49:22;5.70;92.70
1405;DHT22;697;51.114;6.542;2022-11-20T06:51:49;5.70;92.70
1405;DHT22;697;51.114;6.542;2022-11-20T06:54:16;5.70;93.00
1405;DHT22;697;51.114;6.542;2022-11-20T06:56:46;5.70;93.20
1405;DHT22;697;51.114;6.542;2022-11-20T06:59:14;5.70;93.20
1405;DHT22;697;51.114;6.542;2022-11-20T07:01:41;5.60;93.20
1405;DHT22;697;51.114;6.542;2022-11-20T07:04:08;5.70;93.10
1405;DHT22;697;51.114;6.542;2022-11-20T07:06:34;5.70;93.00
1405;DHT22;697;51.114;6.542;2022-11-20T07:09:01;5.70;93.00
1405;DHT22;697;51.114;6.542;2022-11-20T07:11:28;5.70;93.10
1405;DHT22;697;51.114;6.542;2022-11-20T07:13:56;5.70;92.90
1405;DHT22;697;51.114;6.542;2022-11-20T07:16:24;5.70;92.90
1405;DHT22;697;51.114;6.542;2022-11-20T07:18:52;5.70;92.70
1405;DHT22;697;51.114;6.542;2022-11-20T07:21:18;5.70;92.60
1405;DHT22;697;51.114;6.542;2022-11-20T07:23:45;5.70;92.70
1405;DHT22;697;51.114;6.542;2022-11-20T07:26:12;5.80;92.90
1405;DHT22;697;51.114;6.542;2022-11-20T07:28:39;5.80;92.90
1405;DHT22;697;51.114;6.542;2022-11-20T07:31:06;5.80;92.90
1405;DHT22;697;51.114;6.542;2022-11-20T07:33:34;5.80;92.90
1405;DHT22;697;51.114;6.542;2022-11-20T07:36:01;5.80;92.90
1405;DHT22;697;51.114;6.542;2022-11-20T07:38:28;5.90;92.90
1405;DHT22;697;51.114;6.542;2022-11-20T07:40:55;5.90;92.90
1405;DHT22;697;51.114;6.542;2022-11-20T07:43:22;5.90;92.90
1405;DHT22;697;51.114;6.542;2022-11-20T07:45:49;5.90;92.80
1405;DHT22;697;51.114;6.542;2022-11-20T07:48:16;6.00;92.80
1405;DHT22;697;51.114;6.542;2022-11-20T07:50:44;6.00;92.60
1405;DHT22;697;51.114;6.542;2022-11-20T07:53:11;6.00;92.50
1405;DHT22;697;51.114;6.542;2022-11-20T07:55:38;6.00;92.50
1405;DHT22;697;51.114;6.542;2022-11-20T07:58:04;6.00;92.50
1405;DHT22;697;51.114;6.542;2022-11-20T08:00:31;6.10;92.60
1405;DHT22;697;51.114;6.542;2022-11-20T08:02:58;6.10;92.50
1405;DHT22;697;51.114;6.542;2022-11-20T08:05:25;6.10;92.60
1405;DHT22;697;51.114;6.542;2022-11-20T08:07:53;6.10;92.50
1405;DHT22;697;51.114;6.542;2022-11-20T08:10:20;6.20;92.60
1405;DHT22;697;51.114;6.542;2022-11-20T08:12:48;6.20;92.40
1405;DHT22;697;51.114;6.542;2022-11-20T08:15:32;6.20;92.30
1405;DHT22;697;51.114;6.542;2022-11-20T08:18:01;6.30;92.40
1405;DHT22;697;51.114;6.542;2022-11-20T08:20:28;6.30;92.30
1405;DHT22;697;51.114;6.542;2022-11-20T08:22:59;6.30;92.30
1405;DHT22;697;51.114;6.542;2022-11-20T08:25:26;6.30;92.20
1405;DHT22;697;51.114;6.542;2022-11-20T08:27:53;6.40;92.20
1405;DHT22;697;51.114;6.542;2022-11-20T08:30:20;6.40;92.10
1405;DHT22;697;51.114;6.542;2022-11-20T08:32:46;6.40;92.20
1405;DHT22;697;51.114;6.542;2022-11-20T08:35:13;6.40;92.40
1405;DHT22;697;51.114;6.542;2022-11-20T08:37:40;6.50;92.60
1405;DHT22;697;51.114;6.542;2022-11-20T08:40:11;6.50;92.60
1405;DHT22;697;51.114;6.542;2022-11-20T08:42:46;6.60;92.70
1405;DHT22;697;51.114;6.542;2022-11-20T08:45:13;6.60;92.70
1405;DHT22;697;51.114;6.542;2022-11-20T08:47:40;6.60;92.70
1405;DHT22;697;51.114;6.542;2022-11-20T08:50:08;6.70;92.80
1405;DHT22;697;51.114;6.542;2022-11-20T08:52:34;6.80;92.90
1405;DHT22;697;51.114;6.542;2022-11-20T08:55:01;6.90;93.00
1405;DHT22;697;51.114;6.542;2022-11-20T08:57:31;7.00;93.00
1405;DHT22;697;51.114;6.542;2022-11-20T08:59:58;7.00;93.00
1405;DHT22;697;51.114;6.542;2022-11-20T09:02:25;7.10;93.00
1405;DHT22;697;51.114;6.542;2022-11-20T09:04:53;7.10;93.00
1405;DHT22;697;51.114;6.542;2022-11-20T09:07:19;7.20;93.10
1405;DHT22;697;51.114;6.542;2022-11-20T09:09:46;7.20;93.10
1405;DHT22;697;51.114;6.542;2022-11-20T09:12:13;7.10;93.20
1405;DHT22;697;51.114;6.542;2022-11-20T09:14:41;7.10;93.30
1405;DHT22;697;51.114;6.542;2022-11-20T09:17:10;7.20;93.60
1405;DHT22;697;51.114;6.542;2022-11-20T09:19:39;7.20;93.40
1405;DHT22;697;51.114;6.542;2022-11-20T09:22:06;7.30;93.70
1405;DHT22;697;51.114;6.542;2022-11-20T09:24:32;7.40;94.00
1405;DHT22;697;51.114;6.542;2022-11-20T09:27:02;7.50;94.00
1405;DHT22;697;51.114;6.542;2022-11-20T09:29:29;7.60;93.80
1405;DHT22;697;51.114;6.542;2022-11-20T09:31:57;7.60;93.50
1405;DHT22;697;51.114;6.542;2022-11-20T09:34:24;7.70;93.30
1405;DHT22;697;51.114;6.542;2022-11-20T09:36:50;7.70;93.00
1405;DHT22;697;51.114;6.542;2022-11-20T09:39:17;7.70;92.90
1405;DHT22;697;51.114;6.542;2022-11-20T09:42:05;7.60;92.90
1405;DHT22;697;51.114;6.542;2022-11-20T09:44:49;7.70;92.90
1405;DHT22;697;51.114;6.542;2022-11-20T09:47:26;7.60;92.90
1405;DHT22;697;51.114;6.542;2022-11-20T09:50:12;7.50;93.00
1405;DHT22;697;51.114;6.542;2022-11-20T09:52:49;7.50;93.20
1405;DHT22;697;51.114;6.542;2022-11-20T09:55:21;7.60;93.20
1405;DHT22;697;51.114;6.542;2022-11-20T09:57:51;7.60;92.80
1405;DHT22;697;51.114;6.542;2022-11-20T10:00:19;7.70;92.90
1405;DHT22;697;51.114;6.542;2022-11-20T10:02:52;7.80;92.80
1405;DHT22;697;51.114;6.542;2022-11-20T10:05:25;7.80;92.70
1405;DHT22;697;51.114;6.542;2022-11-20T10:08:07;7.90;92.40
1405;DHT22;697;51.114;6.542;2022-11-20T10:10:42;7.90;92.30
1405;DHT22;697;51.114;6.542;2022-11-20T10:13:20;8.00;92.30
1405;DHT22;697;51.114;6.542;2022-11-20T10:15:57;8.10;92.30
1405;DHT22;697;51.114;6.542;2022-11-20T10:18:39;8.10;91.90
1405;DHT22;697;51.114;6.542;2022-11-20T10:21:14;8.20;91.80
1405;DHT22;697;51.114;6.542;2022-11-20T10:23:59;8.20;91.60
1405;DHT22;697;51.114;6.542;2022-11-20T10:26:36;8.30;91.40
1405;DHT22;697;51.114;6.542;2022-11-20T10:29:11;8.30;91.40
1405;DHT22;697;51.114;6.542;2022-11-20T10:31:40;8.30;91.40
1405;DHT22;697;51.114;6.542;2022-11-20T10:34:18;8.40;91.30
1405;DHT22;697;51.114;6.542;2022-11-20T10:36:51;8.50;91.60
1405;DHT22;697;51.114;6.542;2022-11-20T10:39:25;8.60;91.40
1405;DHT22;697;51.114;6.542;2022-11-20T10:41:53;8.70;91.00
1405;DHT22;697;51.114;6.542;2022-11-20T10:44:22;8.80;90.90
1405;DHT22;697;51.114;6.542;2022-11-20T10:47:13;8.80;90.60
1405;DHT22;697;51.114;6.542;2022-11-20T10:49:42;8.80;90.80
1405;DHT22;697;51.114;6.542;2022-11-20T10:52:16;8.80;90.30
1405;DHT22;697;51.114;6.542;2022-11-20T10:54:52;8.80;90.20
1405;DHT22;697;51.114;6.542;2022-11-20T10:57:32;8.70;90.20
1405;DHT22;697;51.114;6.542;2022-11-20T11:00:04;8.60;90.40
1405;DHT22;697;51.114;6.542;2022-11-20T11:02:34;8.60;90.30
1405;DHT22;697;51.114;6.542;2022-11-20T11:05:12;8.50;90.40
1405;DHT22;697;51.114;6.542;2022-11-20T11:07:41;8.50;90.50
1405;DHT22;697;51.114;6.542;2022-11-20T11:10:15;8.40;90.70
1405;DHT22;697;51.114;6.542;2022-11-20T11:12:44;8.40;90.90
1405;DHT22;697;51.114;6.542;2022-11-20T11:15:14;8.40;91.00
1405;DHT22;697;51.114;6.542;2022-11-20T11:17:46;8.30;91.00
1405;DHT22;697;51.114;6.542;2022-11-20T11:20:19;8.30;91.20
1405;DHT22;697;51.114;6.542;2022-11-20T11:22:48;8.30;91.40
1405;DHT22;697;51.114;6.542;2022-11-20T11:25:34;8.30;91.30
1405;DHT22;697;51.114;6.542;2022-11-20T11:28:02;8.20;91.10
1405;DHT22;697;51.114;6.542;2022-11-20T11:30:41;8.10;91.30
1405;DHT22;697;51.114;6.542;2022-11-20T11:33:10;8.10;91.50
1405;DHT22;697;51.114;6.542;2022-11-20T11:35:45;8.10;91.60
1405;DHT22;697;51.114;6.542;2022-11-20T11:38:15;8.20;91.70
1405;DHT22;697;51.114;6.542;2022-11-20T11:40:43;8.20;91.60
1405;DHT22;697;51.114;6.542;2022-11-20T11:43:19;8.20;91.80
1405;DHT22;697;51.114;6.542;2022-11-20T11:46:25;8.30;92.00
1405;DHT22;697;51.114;6.542;2022-11-20T11:49:14;8.40;92.00
1405;DHT22;697;51.114;6.542;2022-11-20T11:51:50;8.40;91.90
1405;DHT22;697;51.114;6.542;2022-11-20T11:54:23;8.40;91.50
1405;DHT22;697;51.114;6.542;2022-11-20T11:56:51;8.30;91.50
1405;DHT22;697;51.114;6.542;2022-11-20T11:59:25;8.30;91.60
1405;DHT22;697;51.114;6.542;2022-11-20T12:01:55;8.30;91.70
1405;DHT22;697;51.114;6.542;2022-11-20T12:04:37;8.30;91.80
1405;DHT22;697;51.114;6.542;2022-11-20T12:07:13;8.20;91.80
1405;DHT22;697;51.114;6.542;2022-11-20T12:09:47;8.30;91.70
1405;DHT22;697;51.114;6.542;2022-11-20T12:12:18;8.20;91.70
1405;DHT22;697;51.114;6.542;2022-11-20T12:14:48;8.20;91.80
1405;DHT22;697;51.114;6.542;2022-11-20T12:17:18;8.10;92.40
1405;DHT22;697;51.114;6.542;2022-11-20T12:19:45;8.10;92.30
1405;DHT22;697;51.114;6.542;2022-11-20T12:22:19;8.10;92.50
1405;DHT22;697;51.114;6.542;2022-11-20T12:24:54;8.10;92.60
1405;DHT22;697;51.114;6.542;2022-11-20T12:27:41;8.10;93.10
1405;DHT22;697;51.114;6.542;2022-11-20T12:30:12;8.10;93.40
1405;DHT22;697;51.114;6.542;2022-11-20T12:32:58;8.10;93.10
1405;DHT22;697;51.114;6.542;2022-11-20T12:35:42;8.20;93.30
1405;DHT22;697;51.114;6.542;2022-11-20T12:41:45;8.40;93.10
1405;DHT22;697;51.114;6.542;2022-11-20T12:44:58;8.40;93.20
1405;DHT22;697;51.114;6.542;2022-11-20T12:47:57;8.40;93.30
1405;DHT22;697;51.114;6.542;2022-11-20T12:50:34;8.40;93.50
1405;DHT22;697;51.114;6.542;2022-11-20T12:53:05;8.50;93.60
1405;DHT22;697;51.114;6.542;2022-11-20T12:55:45;8.50;93.80
1405;DHT22;697;51.114;6.542;2022-11-20T12:58:19;8.50;94.00
1405;DHT22;697;51.114;6.542;2022-11-20T13:00:54;8.60;94.40
1405;DHT22;697;51.114;6.542;2022-11-20T13:03:41;8.60;94.40
1405;DHT22;697;51.114;6.542;2022-11-20T13:06:15;8.60;94.30
1405;DHT22;697;51.114;6.542;2022-11-20T13:08:47;8.60;94.70
1405;DHT22;697;51.114;6.542;2022-11-20T13:11:18;8.60;94.40
1405;DHT22;697;51.114;6.542;2022-11-20T13:14:04;8.60;94.70
1405;DHT22;697;51.114;6.542;2022-11-20T13:16:41;8.70;94.70
1405;DHT22;697;51.114;6.542;2022-11-20T13:19:11;8.70;94.50
1405;DHT22;697;51.114;6.542;2022-11-20T13:21:40;8.70;94.20
1405;DHT22;697;51.114;6.542;2022-11-20T13:24:20;8.70;94.10
1405;DHT22;697;51.114;6.542;2022-11-20T13:26:58;8.70;93.90
1405;DHT22;697;51.114;6.542;2022-11-20T13:29:27;8.80;94.30
1405;DHT22;697;51.114;6.542;2022-11-20T13:32:03;8.90;94.40
1405;DHT22;697;51.114;6.542;2022-11-20T13:34:30;8.90;94.30
1405;DHT22;697;51.114;6.542;2022-11-20T13:36:58;9.00;94.20
1405;DHT22;697;51.114;6.542;2022-11-20T13:39:30;9.00;94.10
1405;DHT22;697;51.114;6.542;2022-11-20T13:41:59;9.00;93.90
1405;DHT22;697;51.114;6.542;2022-11-20T13:44:31;9.00;93.60
1405;DHT22;697;51.114;6.542;2022-11-20T13:47:00;9.10;93.10
1405;DHT22;697;51.114;6.542;2022-11-20T13:49:30;9.10;93.30
1405;DHT22;697;51.114;6.542;2022-11-20T13:52:08;9.10;93.40
1405;DHT22;697;51.114;6.542;2022-11-20T13:55:07;9.20;93.60
1405;DHT22;697;51.114;6.542;2022-11-20T14:00:47;9.30;93.70
1405;DHT22;697;51.114;6.542;2022-11-20T14:03:19;9.30;93.70
1405;DHT22;697;51.114;6.542;2022-11-20T14:05:50;9.30;93.50
1405;DHT22;697;51.114;6.542;2022-11-20T14:08:25;9.40;93.40
1405;DHT22;697;51.114;6.542;2022-11-20T14:11:05;9.30;93.10
1405;DHT22;697;51.114;6.542;2022-11-20T14:13:32;9.30;93.00
1405;DHT22;697;51.114;6.542;2022-11-20T14:16:00;9.30;93.10
1405;DHT22;697;51.114;6.542;2022-11-20T14:18:27;9.30;93.10
1405;DHT22;697;51.114;6.542;2022-11-20T14:20:54;9.30;93.10
1405;DHT22;697;51.114;6.542;2022-11-20T14:23:25;9.30;93.10
1405;DHT22;697;51.114;6.542;2022-11-20T14:25:52;9.30;93.20
1405;DHT22;697;51.114;6.542;2022-11-20T14:28:24;9.20;93.10
1405;DHT22;697;51.114;6.542;2022-11-20T14:30:52;9.20;93.20
1405;DHT22;697;51.114;6.542;2022-11-20T14:33:20;9.10;93.20
1405;DHT22;697;51.114;6.542;2022-11-20T14:35:51;9.10;93.30
1405;DHT22;697;51.114;6.542;2022-11-20T14:38:24;9.10;93.20
1405;DHT22;697;51.114;6.542;2022-11-20T14:40:51;9.10;93.30
1405;DHT22;697;51.114;6.542;2022-11-20T14:43:22;9.00;93.30
1405;DHT22;697;51.114;6.542;2022-11-20T14:45:57;9.00;93.40
1405;DHT22;697;51.114;6.542;2022-11-20T14:48:30;8.90;93.40
1405;DHT22;697;51.114;6.542;2022-11-20T14:50:57;8.90;93.30
1405;DHT22;697;51.114;6.542;2022-11-20T14:53:25;8.90;93.50
1405;DHT22;697;51.114;6.542;2022-11-20T14:55:57;8.80;93.70
1405;DHT22;697;51.114;6.542;2022-11-20T14:58:25;8.70;93.70
1405;DHT22;697;51.114;6.542;2022-11-20T15:00:55;8.70;93.90
1405;DHT22;697;51.114;6.542;2022-11-20T15:03:22;8.70;94.10
1405;DHT22;697;51.114;6.542;2022-11-20T15:05:50;8.60;94.40
1405;DHT22;697;51.114;6.542;2022-11-20T15:08:17;8.60;94.50
1405;DHT22;697;51.114;6.542;2022-11-20T15:10:48;8.50;94.90
1405;DHT22;697;51.114;6.542;2022-11-20T15:13:20;8.50;95.30
1405;DHT22;697;51.114;6.542;2022-11-20T15:15:52;8.50;95.40
1405;DHT22;697;51.114;6.542;2022-11-20T15:18:22;8.40;95.70
1405;DHT22;697;51.114;6.542;2022-11-20T15:20:50;8.40;96.00
1405;DHT22;697;51.114;6.542;2022-11-20T15:23:19;8.30;96.20
1405;DHT22;697;51.114;6.542;2022-11-20T15:25:47;8.30;96.40
1405;DHT22;697;51.114;6.542;2022-11-20T15:28:18;8.30;97.10
1405;DHT22;697;51.114;6.542;2022-11-20T15:30:45;8.30;97.40
1405;DHT22;697;51.114;6.542;2022-11-20T15:33:13;8.30;97.30
1405;DHT22;697;51.114;6.542;2022-11-20T15:35:40;8.20;97.50
1405;DHT22;697;51.114;6.542;2022-11-20T15:38:08;8.30;97.60
1405;DHT22;697;51.114;6.542;2022-11-20T15:40:35;8.30;97.90
1405;DHT22;697;51.114;6.542;2022-11-20T15:43:02;8.30;98.00
1405;DHT22;697;51.114;6.542;2022-11-20T15:45:31;8.30;98.00
1405;DHT22;697;51.114;6.542;2022-11-20T15:47:59;8.20;98.20
1405;DHT22;697;51.114;6.542;2022-11-20T15:50:30;8.20;98.40
1405;DHT22;697;51.114;6.542;2022-11-20T15:52:59;8.20;98.40
1405;DHT22;697;51.114;6.542;2022-11-20T15:55:27;8.20;98.60
1405;DHT22;697;51.114;6.542;2022-11-20T15:57:54;8.30;98.80
1405;DHT22;697;51.114;6.542;2022-11-20T16:00:21;8.30;98.80
1405;DHT22;697;51.114;6.542;2022-11-20T16:02:49;8.30;99.10
1405;DHT22;697;51.114;6.542;2022-11-20T16:05:16;8.30;99.20
1405;DHT22;697;51.114;6.542;2022-11-20T16:07:43;8.30;99.20
1405;DHT22;697;51.114;6.542;2022-11-20T16:10:10;8.30;99.20
1405;DHT22;697;51.114;6.542;2022-11-20T16:12:38;8.30;99.30
1405;DHT22;697;51.114;6.542;2022-11-20T16:15:22;8.30;99.30
1405;DHT22;697;51.114;6.542;2022-11-20T16:18:08;8.30;99.30
1405;DHT22;697;51.114;6.542;2022-11-20T16:20:35;8.30;99.40
1405;DHT22;697;51.114;6.542;2022-11-20T16:23:02;8.30;99.30
1405;DHT22;697;51.114;6.542;2022-11-20T16:25:28;8.30;99.30
1405;DHT22;697;51.114;6.542;2022-11-20T16:27:57;8.30;99.40
1405;DHT22;697;51.114;6.542;2022-11-20T16:30:23;8.30;99.40
1405;DHT22;697;51.114;6.542;2022-11-20T16:32:50;8.30;99.50
1405;DHT22;697;51.114;6.542;2022-11-20T16:35:17;8.30;99.70
1405;DHT22;697;51.114;6.542;2022-11-20T16:37:43;8.30;99.80
1405;DHT22;697;51.114;6.542;2022-11-20T16:40:11;8.30;99.90
1405;DHT22;697;51.114;6.542;2022-11-20T16:42:38;8.30;99.90
1405;DHT22;697;51.114;6.542;2022-11-20T16:45:07;8.30;99.90
1405;DHT22;697;51.114;6.542;2022-11-20T16:47:33;8.30;99.90
1405;DHT22;697;51.114;6.542;2022-11-20T16:50:02;8.30;99.90
1405;DHT22;697;51.114;6.542;2022-11-20T16:52:30;8.30;99.90
1405;DHT22;697;51.114;6.542;2022-11-20T16:54:57;8.30;99.90
1405;DHT22;697;51.114;6.542;2022-11-20T16:57:26;8.30;99.90